sensor_id;sensor_type;location;lat;lon;timestamp;P1;durP1;ratioP1;P2;durP2;ratioP2
37847;SDS011;23688;33.130;-117.188;2023-01-16T00:01:29;12.77;;;2.47;;
37847;SDS011;23688;33.130;-117.188;2023-01-16T00:03:55;13.40;;;2.63;;
37847;SDS011;23688;33.130;-117.188;2023-01-16T00:06:21;11.88;;;2.33;;
37847;SDS011;23688;33.130;-117.188;2023-01-16T00:08:48;18.40;;;2.88;;
37847;SDS011;23688;33.130;-117.188;2023-01-16T00:11:14;12.75;;;2.60;;
37847;SDS011;23688;33.130;-117.188;2023-01-16T00:13:41;14.43;;;2.70;;
37847;SDS011;23688;33.130;-117.188;2023-01-16T00:16:08;10.73;;;2.47;;
37847;SDS011;23688;33.130;-117.188;2023-01-16T00:18:34;14.38;;;2.85;;
37847;SDS011;23688;33.130;-117.188;2023-01-16T00:21:01;10.27;;;2.50;;
37847;SDS011;23688;33.130;-117.188;2023-01-16T00:23:27;13.77;;;2.83;;
37847;SDS011;23688;33.130;-117.188;2023-01-16T00:25:54;20.23;;;3.78;;
37847;SDS011;23688;33.130;-117.188;2023-01-16T00:28:20;20.73;;;3.78;;
37847;SDS011;23688;33.130;-117.188;2023-01-16T00:30:47;20.90;;;3.22;;
37847;SDS011;23688;33.130;-117.188;2023-01-16T00:33:13;16.23;;;3.00;;
37847;SDS011;23688;33.130;-117.188;2023-01-16T00:35:39;14.35;;;3.20;;
37847;SDS011;23688;33.130;-117.188;2023-01-16T00:38:06;18.20;;;3.72;;
37847;SDS011;23688;33.130;-117.188;2023-01-16T00:40:32;20.55;;;3.25;;
37847;SDS011;23688;33.130;-117.188;2023-01-16T00:42:58;25.13;;;3.70;;
37847;SDS011;23688;33.130;-117.188;2023-01-16T00:45:25;18.40;;;3.78;;
37847;SDS011;23688;33.130;-117.188;2023-01-16T00:47:51;29.33;;;4.13;;
37847;SDS011;23688;33.130;-117.188;2023-01-16T00:50:17;15.70;;;3.88;;
37847;SDS011;23688;33.130;-117.188;2023-01-16T00:52:44;25.23;;;4.28;;
37847;SDS011;23688;33.130;-117.188;2023-01-16T00:55:10;18.42;;;3.08;;
37847;SDS011;23688;33.130;-117.188;2023-01-16T00:57:37;24.70;;;4.85;;
37847;SDS011;23688;33.130;-117.188;2023-01-16T01:00:03;23.10;;;3.03;;
37847;SDS011;23688;33.130;-117.188;2023-01-16T01:02:30;18.80;;;3.53;;
37847;SDS011;23688;33.130;-117.188;2023-01-16T01:04:56;22.00;;;3.70;;
37847;SDS011;23688;33.130;-117.188;2023-01-16T01:07:23;22.23;;;6.28;;
37847;SDS011;23688;33.130;-117.188;2023-01-16T01:09:49;15.18;;;3.20;;
37847;SDS011;23688;33.130;-117.188;2023-01-16T01:12:16;17.98;;;3.65;;
37847;SDS011;23688;33.130;-117.188;2023-01-16T01:14:42;13.27;;;3.35;;
37847;SDS011;23688;33.130;-117.188;2023-01-16T01:17:09;20.45;;;3.75;;
37847;SDS011;23688;33.130;-117.188;2023-01-16T01:19:35;11.27;;;3.33;;
37847;SDS011;23688;33.130;-117.188;2023-01-16T01:22:02;13.13;;;3.63;;
37847;SDS011;23688;33.130;-117.188;2023-01-16T01:24:28;35.95;;;14.35;;
37847;SDS011;23688;33.130;-117.188;2023-01-16T01:26:54;29.23;;;12.20;;
37847;SDS011;23688;33.130;-117.188;2023-01-16T01:29:21;35.28;;;15.88;;
37847;SDS011;23688;33.130;-117.188;2023-01-16T01:31:47;19.63;;;5.90;;
37847;SDS011;23688;33.130;-117.188;2023-01-16T01:34:13;21.27;;;4.82;;
37847;SDS011;23688;33.130;-117.188;2023-01-16T01:36:40;18.27;;;4.38;;
37847;SDS011;23688;33.130;-117.188;2023-01-16T01:39:06;15.07;;;2.63;;
37847;SDS011;23688;33.130;-117.188;2023-01-16T01:41:32;19.27;;;3.22;;
37847;SDS011;23688;33.130;-117.188;2023-01-16T01:43:59;18.30;;;4.10;;
37847;SDS011;23688;33.130;-117.188;2023-01-16T01:52:04;14.98;;;2.90;;
37847;SDS011;23688;33.130;-117.188;2023-01-16T01:54:41;25.83;;;3.35;;
37847;SDS011;23688;33.130;-117.188;2023-01-16T02:00:04;13.85;;;2.45;;
37847;SDS011;23688;33.130;-117.188;2023-01-16T02:02:43;21.40;;;3.42;;
37847;SDS011;23688;33.130;-117.188;2023-01-16T02:05:28;17.98;;;3.53;;
37847;SDS011;23688;33.130;-117.188;2023-01-16T02:08:02;26.00;;;4.90;;
37847;SDS011;23688;33.130;-117.188;2023-01-16T02:13:05;19.88;;;4.15;;
37847;SDS011;23688;33.130;-117.188;2023-01-16T02:15:31;16.35;;;3.50;;
37847;SDS011;23688;33.130;-117.188;2023-01-16T02:17:58;28.73;;;4.35;;
37847;SDS011;23688;33.130;-117.188;2023-01-16T02:20:48;20.70;;;3.78;;
37847;SDS011;23688;33.130;-117.188;2023-01-16T02:23:25;26.33;;;3.83;;
37847;SDS011;23688;33.130;-117.188;2023-01-16T02:26:18;21.58;;;3.70;;
37847;SDS011;23688;33.130;-117.188;2023-01-16T02:34:34;25.02;;;4.28;;
37847;SDS011;23688;33.130;-117.188;2023-01-16T02:37:34;21.95;;;4.82;;
37847;SDS011;23688;33.130;-117.188;2023-01-16T02:42:44;24.48;;;3.38;;
37847;SDS011;23688;33.130;-117.188;2023-01-16T02:45:29;25.90;;;4.90;;
37847;SDS011;23688;33.130;-117.188;2023-01-16T02:54:00;21.08;;;3.67;;
37847;SDS011;23688;33.130;-117.188;2023-01-16T02:59:32;16.65;;;2.90;;
37847;SDS011;23688;33.130;-117.188;2023-01-16T03:02:00;21.10;;;3.60;;
37847;SDS011;23688;33.130;-117.188;2023-01-16T03:05:01;14.98;;;2.63;;
37847;SDS011;23688;33.130;-117.188;2023-01-16T03:13:46;18.30;;;2.70;;
37847;SDS011;23688;33.130;-117.188;2023-01-16T03:16:44;19.80;;;2.92;;
37847;SDS011;23688;33.130;-117.188;2023-01-16T03:30:12;25.17;;;3.60;;
37847;SDS011;23688;33.130;-117.188;2023-01-16T03:32:53;18.55;;;2.78;;
37847;SDS011;23688;33.130;-117.188;2023-01-16T03:37:57;18.77;;;3.17;;
37847;SDS011;23688;33.130;-117.188;2023-01-16T03:40:31;16.13;;;3.92;;
37847;SDS011;23688;33.130;-117.188;2023-01-16T03:43:05;10.57;;;2.65;;
37847;SDS011;23688;33.130;-117.188;2023-01-16T03:45:52;13.43;;;3.00;;
37847;SDS011;23688;33.130;-117.188;2023-01-16T03:48:28;14.50;;;2.22;;
37847;SDS011;23688;33.130;-117.188;2023-01-16T03:51:04;13.73;;;3.10;;
37847;SDS011;23688;33.130;-117.188;2023-01-16T03:53:33;8.43;;;2.22;;
37847;SDS011;23688;33.130;-117.188;2023-01-16T03:56:11;6.68;;;1.63;;
37847;SDS011;23688;33.130;-117.188;2023-01-16T03:58:59;10.73;;;2.65;;
37847;SDS011;23688;33.130;-117.188;2023-01-16T04:04:03;8.18;;;1.90;;
37847;SDS011;23688;33.130;-117.188;2023-01-16T04:06:35;7.82;;;1.52;;
37847;SDS011;23688;33.130;-117.188;2023-01-16T04:09:10;4.85;;;1.13;;
37847;SDS011;23688;33.130;-117.188;2023-01-16T04:11:44;4.38;;;1.10;;
37847;SDS011;23688;33.130;-117.188;2023-01-16T04:14:14;7.47;;;1.63;;
37847;SDS011;23688;33.130;-117.188;2023-01-16T04:19:11;6.72;;;1.77;;
37847;SDS011;23688;33.130;-117.188;2023-01-16T04:21:42;5.68;;;1.13;;
37847;SDS011;23688;33.130;-117.188;2023-01-16T04:24:10;3.78;;;0.98;;
37847;SDS011;23688;33.130;-117.188;2023-01-16T04:26:37;5.45;;;1.30;;
37847;SDS011;23688;33.130;-117.188;2023-01-16T04:29:03;4.13;;;0.98;;
37847;SDS011;23688;33.130;-117.188;2023-01-16T04:31:29;7.30;;;1.50;;
37847;SDS011;23688;33.130;-117.188;2023-01-16T04:33:56;4.50;;;0.90;;
37847;SDS011;23688;33.130;-117.188;2023-01-16T04:36:22;4.75;;;1.38;;
37847;SDS011;23688;33.130;-117.188;2023-01-16T04:38:48;3.28;;;1.40;;
37847;SDS011;23688;33.130;-117.188;2023-01-16T04:41:14;3.33;;;1.50;;
37847;SDS011;23688;33.130;-117.188;2023-01-16T04:44:01;5.90;;;1.67;;
37847;SDS011;23688;33.130;-117.188;2023-01-16T04:46:29;11.27;;;1.65;;
37847;SDS011;23688;33.130;-117.188;2023-01-16T04:48:55;7.45;;;1.98;;
37847;SDS011;23688;33.130;-117.188;2023-01-16T04:51:21;11.63;;;2.35;;
37847;SDS011;23688;33.130;-117.188;2023-01-16T04:53:48;8.05;;;1.42;;
37847;SDS011;23688;33.130;-117.188;2023-01-16T04:56:14;6.65;;;2.10;;
37847;SDS011;23688;33.130;-117.188;2023-01-16T04:58:40;12.80;;;2.88;;
37847;SDS011;23688;33.130;-117.188;2023-01-16T05:01:07;10.65;;;2.53;;
37847;SDS011;23688;33.130;-117.188;2023-01-16T05:03:33;4.15;;;1.67;;
37847;SDS011;23688;33.130;-117.188;2023-01-16T05:05:59;6.57;;;2.53;;
37847;SDS011;23688;33.130;-117.188;2023-01-16T05:08:26;7.63;;;2.33;;
37847;SDS011;23688;33.130;-117.188;2023-01-16T05:10:54;11.40;;;2.10;;
37847;SDS011;23688;33.130;-117.188;2023-01-16T05:13:20;8.32;;;1.63;;
37847;SDS011;23688;33.130;-117.188;2023-01-16T05:15:47;6.30;;;1.67;;
37847;SDS011;23688;33.130;-117.188;2023-01-16T05:18:13;12.82;;;2.10;;
37847;SDS011;23688;33.130;-117.188;2023-01-16T05:20:40;9.98;;;2.03;;
37847;SDS011;23688;33.130;-117.188;2023-01-16T05:23:06;7.32;;;1.95;;
37847;SDS011;23688;33.130;-117.188;2023-01-16T05:28:00;14.85;;;3.35;;
37847;SDS011;23688;33.130;-117.188;2023-01-16T05:30:27;15.13;;;2.58;;
37847;SDS011;23688;33.130;-117.188;2023-01-16T05:32:53;7.90;;;2.85;;
37847;SDS011;23688;33.130;-117.188;2023-01-16T05:35:19;9.50;;;2.90;;
37847;SDS011;23688;33.130;-117.188;2023-01-16T05:37:46;9.18;;;2.30;;
37847;SDS011;23688;33.130;-117.188;2023-01-16T05:40:12;10.43;;;2.90;;
37847;SDS011;23688;33.130;-117.188;2023-01-16T05:42:42;17.33;;;3.72;;
37847;SDS011;23688;33.130;-117.188;2023-01-16T05:45:09;16.13;;;3.85;;
37847;SDS011;23688;33.130;-117.188;2023-01-16T05:47:36;5.70;;;2.25;;
37847;SDS011;23688;33.130;-117.188;2023-01-16T05:50:03;12.50;;;2.10;;
37847;SDS011;23688;33.130;-117.188;2023-01-16T05:52:29;7.38;;;1.90;;
37847;SDS011;23688;33.130;-117.188;2023-01-16T05:54:56;12.15;;;3.60;;
37847;SDS011;23688;33.130;-117.188;2023-01-16T05:57:22;6.88;;;1.98;;
37847;SDS011;23688;33.130;-117.188;2023-01-16T05:59:50;5.43;;;1.58;;
37847;SDS011;23688;33.130;-117.188;2023-01-16T06:02:17;3.67;;;1.50;;
37847;SDS011;23688;33.130;-117.188;2023-01-16T06:04:45;11.32;;;1.60;;
37847;SDS011;23688;33.130;-117.188;2023-01-16T06:07:11;5.30;;;1.60;;
37847;SDS011;23688;33.130;-117.188;2023-01-16T06:09:38;7.10;;;1.70;;
37847;SDS011;23688;33.130;-117.188;2023-01-16T06:12:05;5.15;;;1.67;;
37847;SDS011;23688;33.130;-117.188;2023-01-16T06:14:35;5.50;;;1.60;;
37847;SDS011;23688;33.130;-117.188;2023-01-16T06:17:01;7.20;;;1.67;;
37847;SDS011;23688;33.130;-117.188;2023-01-16T06:19:27;9.50;;;1.63;;
37847;SDS011;23688;33.130;-117.188;2023-01-16T06:21:54;3.20;;;1.40;;
37847;SDS011;23688;33.130;-117.188;2023-01-16T06:24:20;5.38;;;1.15;;
37847;SDS011;23688;33.130;-117.188;2023-01-16T06:26:46;4.88;;;1.40;;
37847;SDS011;23688;33.130;-117.188;2023-01-16T06:29:12;5.32;;;0.95;;
37847;SDS011;23688;33.130;-117.188;2023-01-16T06:31:39;5.22;;;1.63;;
37847;SDS011;23688;33.130;-117.188;2023-01-16T06:34:05;4.90;;;1.23;;
37847;SDS011;23688;33.130;-117.188;2023-01-16T06:36:31;5.03;;;1.13;;
37847;SDS011;23688;33.130;-117.188;2023-01-16T06:38:58;6.60;;;0.90;;
37847;SDS011;23688;33.130;-117.188;2023-01-16T06:41:24;2.42;;;1.10;;
37847;SDS011;23688;33.130;-117.188;2023-01-16T06:43:50;2.50;;;1.20;;
37847;SDS011;23688;33.130;-117.188;2023-01-16T06:46:17;3.22;;;0.95;;
37847;SDS011;23688;33.130;-117.188;2023-01-16T06:48:43;2.20;;;1.10;;
37847;SDS011;23688;33.130;-117.188;2023-01-16T06:51:10;2.63;;;1.10;;
37847;SDS011;23688;33.130;-117.188;2023-01-16T06:53:36;4.85;;;1.20;;
37847;SDS011;23688;33.130;-117.188;2023-01-16T06:56:03;4.18;;;1.35;;
37847;SDS011;23688;33.130;-117.188;2023-01-16T06:58:29;3.08;;;1.05;;
37847;SDS011;23688;33.130;-117.188;2023-01-16T07:00:56;2.22;;;0.90;;
37847;SDS011;23688;33.130;-117.188;2023-01-16T07:03:22;2.90;;;1.08;;
37847;SDS011;23688;33.130;-117.188;2023-01-16T07:05:49;1.90;;;0.65;;
37847;SDS011;23688;33.130;-117.188;2023-01-16T07:08:16;2.45;;;1.17;;
37847;SDS011;23688;33.130;-117.188;2023-01-16T07:10:42;4.60;;;1.27;;
37847;SDS011;23688;33.130;-117.188;2023-01-16T07:13:12;4.93;;;0.88;;
37847;SDS011;23688;33.130;-117.188;2023-01-16T07:15:38;1.73;;;1.00;;
37847;SDS011;23688;33.130;-117.188;2023-01-16T07:18:30;2.08;;;0.82;;
37847;SDS011;23688;33.130;-117.188;2023-01-16T07:21:14;2.50;;;0.88;;
37847;SDS011;23688;33.130;-117.188;2023-01-16T07:24:03;2.72;;;0.95;;
37847;SDS011;23688;33.130;-117.188;2023-01-16T07:26:32;4.80;;;1.05;;
37847;SDS011;23688;33.130;-117.188;2023-01-16T07:29:01;5.30;;;1.10;;
37847;SDS011;23688;33.130;-117.188;2023-01-16T07:31:29;3.05;;;1.15;;
37847;SDS011;23688;33.130;-117.188;2023-01-16T07:33:58;3.47;;;0.95;;
37847;SDS011;23688;33.130;-117.188;2023-01-16T07:36:24;4.07;;;1.20;;
37847;SDS011;23688;33.130;-117.188;2023-01-16T07:38:50;5.72;;;1.30;;
37847;SDS011;23688;33.130;-117.188;2023-01-16T07:41:17;4.00;;;1.10;;
37847;SDS011;23688;33.130;-117.188;2023-01-16T07:43:43;3.75;;;1.17;;
37847;SDS011;23688;33.130;-117.188;2023-01-16T07:46:09;4.65;;;1.50;;
37847;SDS011;23688;33.130;-117.188;2023-01-16T07:48:35;6.43;;;1.20;;
37847;SDS011;23688;33.130;-117.188;2023-01-16T07:51:02;2.70;;;0.80;;
37847;SDS011;23688;33.130;-117.188;2023-01-16T07:53:28;1.40;;;1.10;;
37847;SDS011;23688;33.130;-117.188;2023-01-16T07:55:56;3.63;;;0.80;;
37847;SDS011;23688;33.130;-117.188;2023-01-16T07:58:24;1.20;;;0.90;;
37847;SDS011;23688;33.130;-117.188;2023-01-16T08:00:54;3.63;;;1.10;;
37847;SDS011;23688;33.130;-117.188;2023-01-16T08:03:23;3.85;;;1.23;;
37847;SDS011;23688;33.130;-117.188;2023-01-16T08:05:49;1.83;;;0.70;;
37847;SDS011;23688;33.130;-117.188;2023-01-16T08:08:21;2.38;;;0.80;;
37847;SDS011;23688;33.130;-117.188;2023-01-16T08:10:47;4.70;;;0.90;;
37847;SDS011;23688;33.130;-117.188;2023-01-16T08:13:13;3.42;;;0.77;;
37847;SDS011;23688;33.130;-117.188;2023-01-16T08:15:40;6.03;;;1.30;;
37847;SDS011;23688;33.130;-117.188;2023-01-16T08:18:06;4.05;;;1.55;;
37847;SDS011;23688;33.130;-117.188;2023-01-16T08:20:33;3.80;;;1.15;;
37847;SDS011;23688;33.130;-117.188;2023-01-16T08:22:59;4.35;;;1.17;;
37847;SDS011;23688;33.130;-117.188;2023-01-16T08:25:26;6.93;;;1.45;;
37847;SDS011;23688;33.130;-117.188;2023-01-16T08:27:52;3.78;;;1.17;;
37847;SDS011;23688;33.130;-117.188;2023-01-16T08:30:18;8.63;;;1.83;;
37847;SDS011;23688;33.130;-117.188;2023-01-16T08:32:45;6.47;;;1.75;;
37847;SDS011;23688;33.130;-117.188;2023-01-16T08:35:11;6.63;;;1.88;;
37847;SDS011;23688;33.130;-117.188;2023-01-16T08:37:38;5.68;;;1.58;;
37847;SDS011;23688;33.130;-117.188;2023-01-16T08:40:12;12.07;;;2.30;;
37847;SDS011;23688;33.130;-117.188;2023-01-16T08:42:39;11.95;;;2.30;;
37847;SDS011;23688;33.130;-117.188;2023-01-16T08:45:24;17.27;;;1.67;;
37847;SDS011;23688;33.130;-117.188;2023-01-16T08:48:08;14.40;;;2.10;;
37847;SDS011;23688;33.130;-117.188;2023-01-16T08:50:54;9.15;;;2.10;;
37847;SDS011;23688;33.130;-117.188;2023-01-16T08:53:40;12.50;;;2.13;;
37847;SDS011;23688;33.130;-117.188;2023-01-16T08:56:06;9.20;;;1.95;;
37847;SDS011;23688;33.130;-117.188;2023-01-16T08:58:33;13.63;;;2.22;;
37847;SDS011;23688;33.130;-117.188;2023-01-16T09:00:59;11.45;;;2.13;;
37847;SDS011;23688;33.130;-117.188;2023-01-16T09:03:25;10.77;;;2.10;;
37847;SDS011;23688;33.130;-117.188;2023-01-16T09:05:52;15.98;;;2.85;;
37847;SDS011;23688;33.130;-117.188;2023-01-16T09:08:18;10.65;;;2.33;;
37847;SDS011;23688;33.130;-117.188;2023-01-16T09:10:44;21.00;;;3.08;;
37847;SDS011;23688;33.130;-117.188;2023-01-16T09:13:30;10.52;;;2.03;;
37847;SDS011;23688;33.130;-117.188;2023-01-16T09:16:18;9.65;;;1.73;;
37847;SDS011;23688;33.130;-117.188;2023-01-16T09:18:47;7.63;;;1.73;;
37847;SDS011;23688;33.130;-117.188;2023-01-16T09:21:14;8.68;;;2.10;;
37847;SDS011;23688;33.130;-117.188;2023-01-16T09:23:41;9.20;;;1.67;;
37847;SDS011;23688;33.130;-117.188;2023-01-16T09:26:07;5.70;;;1.23;;
37847;SDS011;23688;33.130;-117.188;2023-01-16T09:28:33;6.82;;;1.02;;
37847;SDS011;23688;33.130;-117.188;2023-01-16T09:31:00;6.25;;;1.40;;
37847;SDS011;23688;33.130;-117.188;2023-01-16T09:33:26;6.63;;;2.08;;
37847;SDS011;23688;33.130;-117.188;2023-01-16T09:35:53;10.57;;;1.95;;
37847;SDS011;23688;33.130;-117.188;2023-01-16T09:38:19;16.08;;;2.08;;
37847;SDS011;23688;33.130;-117.188;2023-01-16T09:40:46;14.57;;;2.58;;
37847;SDS011;23688;33.130;-117.188;2023-01-16T09:46:27;12.77;;;1.77;;
37847;SDS011;23688;33.130;-117.188;2023-01-16T09:51:46;17.85;;;2.63;;
37847;SDS011;23688;33.130;-117.188;2023-01-16T09:54:39;8.25;;;1.65;;
37847;SDS011;23688;33.130;-117.188;2023-01-16T09:57:31;12.93;;;2.58;;
37847;SDS011;23688;33.130;-117.188;2023-01-16T10:00:18;2.33;;;0.77;;
37847;SDS011;23688;33.130;-117.188;2023-01-16T10:02:47;5.82;;;1.17;;
37847;SDS011;23688;33.130;-117.188;2023-01-16T10:05:13;4.38;;;1.02;;
37847;SDS011;23688;33.130;-117.188;2023-01-16T10:07:45;3.63;;;0.52;;
37847;SDS011;23688;33.130;-117.188;2023-01-16T10:10:27;2.15;;;0.40;;
37847;SDS011;23688;33.130;-117.188;2023-01-16T10:29:57;7.55;;;0.68;;
37847;SDS011;23688;33.130;-117.188;2023-01-16T10:32:39;1.85;;;0.30;;
37847;SDS011;23688;33.130;-117.188;2023-01-16T10:35:20;1.05;;;0.22;;
37847;SDS011;23688;33.130;-117.188;2023-01-16T10:38:06;1.85;;;0.28;;
37847;SDS011;23688;33.130;-117.188;2023-01-16T10:40:52;0.10;;;0.10;;
37847;SDS011;23688;33.130;-117.188;2023-01-16T10:43:27;0.35;;;0.20;;
37847;SDS011;23688;33.130;-117.188;2023-01-16T10:46:21;0.28;;;0.20;;
37847;SDS011;23688;33.130;-117.188;2023-01-16T10:49:12;1.20;;;0.10;;
37847;SDS011;23688;33.130;-117.188;2023-01-16T10:51:54;1.30;;;0.20;;
37847;SDS011;23688;33.130;-117.188;2023-01-16T10:54:23;2.20;;;0.30;;
37847;SDS011;23688;33.130;-117.188;2023-01-16T10:56:49;0.82;;;0.20;;
37847;SDS011;23688;33.130;-117.188;2023-01-16T10:59:16;0.65;;;0.20;;
37847;SDS011;23688;33.130;-117.188;2023-01-16T11:01:43;0.30;;;0.10;;
37847;SDS011;23688;33.130;-117.188;2023-01-16T11:04:11;0.90;;;0.20;;
37847;SDS011;23688;33.130;-117.188;2023-01-16T11:06:38;0.50;;;0.15;;
37847;SDS011;23688;33.130;-117.188;2023-01-16T11:11:39;1.15;;;0.17;;
37847;SDS011;23688;33.130;-117.188;2023-01-16T11:14:25;0.45;;;0.20;;
37847;SDS011;23688;33.130;-117.188;2023-01-16T11:17:23;1.42;;;0.20;;
37847;SDS011;23688;33.130;-117.188;2023-01-16T11:20:16;1.15;;;0.30;;
37847;SDS011;23688;33.130;-117.188;2023-01-16T11:22:44;0.35;;;0.30;;
37847;SDS011;23688;33.130;-117.188;2023-01-16T11:25:16;0.68;;;0.40;;
37847;SDS011;23688;33.130;-117.188;2023-01-16T11:27:45;0.45;;;0.30;;
37847;SDS011;23688;33.130;-117.188;2023-01-16T11:30:22;0.57;;;0.30;;
37847;SDS011;23688;33.130;-117.188;2023-01-16T11:32:54;1.98;;;0.28;;
37847;SDS011;23688;33.130;-117.188;2023-01-16T11:35:33;1.00;;;0.20;;
37847;SDS011;23688;33.130;-117.188;2023-01-16T11:40:29;1.25;;;0.20;;
37847;SDS011;23688;33.130;-117.188;2023-01-16T11:43:05;2.83;;;0.82;;
37847;SDS011;23688;33.130;-117.188;2023-01-16T11:45:56;1.65;;;0.22;;
37847;SDS011;23688;33.130;-117.188;2023-01-16T11:48:44;1.45;;;0.20;;
37847;SDS011;23688;33.130;-117.188;2023-01-16T11:51:18;0.55;;;0.05;;
37847;SDS011;23688;33.130;-117.188;2023-01-16T11:53:47;0.20;;;0.20;;
37847;SDS011;23688;33.130;-117.188;2023-01-16T12:10:55;2.05;;;0.30;;
37847;SDS011;23688;33.130;-117.188;2023-01-16T12:21:55;0.93;;;0.28;;
37847;SDS011;23688;33.130;-117.188;2023-01-16T12:24:37;0.57;;;0.20;;
37847;SDS011;23688;33.130;-117.188;2023-01-16T12:41:32;0.50;;;0.20;;
37847;SDS011;23688;33.130;-117.188;2023-01-16T12:50:03;1.75;;;0.30;;
37847;SDS011;23688;33.130;-117.188;2023-01-16T12:55:45;0.95;;;0.28;;
37847;SDS011;23688;33.130;-117.188;2023-01-16T12:58:27;1.55;;;0.47;;
37847;SDS011;23688;33.130;-117.188;2023-01-16T13:01:09;4.47;;;0.57;;
37847;SDS011;23688;33.130;-117.188;2023-01-16T13:03:58;0.10;;;0.10;;
37847;SDS011;23688;33.130;-117.188;2023-01-16T13:06:34;0.10;;;0.10;;
37847;SDS011;23688;33.130;-117.188;2023-01-16T13:09:11;1.33;;;0.10;;
37847;SDS011;23688;33.130;-117.188;2023-01-16T13:14:54;0.15;;;0.10;;
37847;SDS011;23688;33.130;-117.188;2023-01-16T13:17:26;0.70;;;0.20;;
37847;SDS011;23688;33.130;-117.188;2023-01-16T13:20:02;2.88;;;0.88;;
37847;SDS011;23688;33.130;-117.188;2023-01-16T13:22:42;2.08;;;0.47;;
37847;SDS011;23688;33.130;-117.188;2023-01-16T13:28:02;9.27;;;1.35;;
37847;SDS011;23688;33.130;-117.188;2023-01-16T13:30:40;15.95;;;2.05;;
37847;SDS011;23688;33.130;-117.188;2023-01-16T13:33:18;17.20;;;1.70;;
37847;SDS011;23688;33.130;-117.188;2023-01-16T13:35:53;18.83;;;2.50;;
37847;SDS011;23688;33.130;-117.188;2023-01-16T13:38:54;24.85;;;2.95;;
37847;SDS011;23688;33.130;-117.188;2023-01-16T13:41:45;28.00;;;2.60;;
37847;SDS011;23688;33.130;-117.188;2023-01-16T13:44:17;23.23;;;2.88;;
37847;SDS011;23688;33.130;-117.188;2023-01-16T13:47:10;37.75;;;3.45;;
37847;SDS011;23688;33.130;-117.188;2023-01-16T13:49:39;30.30;;;3.67;;
37847;SDS011;23688;33.130;-117.188;2023-01-16T13:52:13;28.85;;;3.38;;
37847;SDS011;23688;33.130;-117.188;2023-01-16T13:54:44;28.70;;;3.08;;
37847;SDS011;23688;33.130;-117.188;2023-01-16T13:57:15;43.28;;;5.78;;
37847;SDS011;23688;33.130;-117.188;2023-01-16T13:59:52;42.90;;;4.18;;
37847;SDS011;23688;33.130;-117.188;2023-01-16T14:15:51;91.82;;;10.40;;
37847;SDS011;23688;33.130;-117.188;2023-01-16T14:23:54;86.65;;;12.00;;
37847;SDS011;23688;33.130;-117.188;2023-01-16T14:26:38;78.85;;;9.30;;
37847;SDS011;23688;33.130;-117.188;2023-01-16T14:31:45;98.88;;;11.40;;
37847;SDS011;23688;33.130;-117.188;2023-01-16T14:34:26;108.57;;;11.20;;
37847;SDS011;23688;33.130;-117.188;2023-01-16T14:37:04;93.70;;;10.85;;
37847;SDS011;23688;33.130;-117.188;2023-01-16T14:39:38;98.90;;;10.45;;
37847;SDS011;23688;33.130;-117.188;2023-01-16T14:42:20;89.90;;;9.82;;
37847;SDS011;23688;33.130;-117.188;2023-01-16T14:45:28;91.22;;;9.95;;
37847;SDS011;23688;33.130;-117.188;2023-01-16T14:51:16;109.07;;;10.05;;
37847;SDS011;23688;33.130;-117.188;2023-01-16T14:54:29;103.03;;;9.95;;
37847;SDS011;23688;33.130;-117.188;2023-01-16T14:57:17;93.72;;;11.75;;
37847;SDS011;23688;33.130;-117.188;2023-01-16T15:00:04;94.15;;;12.20;;
37847;SDS011;23688;33.130;-117.188;2023-01-16T15:05:49;124.20;;;10.85;;
37847;SDS011;23688;33.130;-117.188;2023-01-16T15:08:21;87.57;;;9.75;;
37847;SDS011;23688;33.130;-117.188;2023-01-16T15:10:55;55.15;;;7.03;;
37847;SDS011;23688;33.130;-117.188;2023-01-16T15:13:45;57.53;;;6.43;;
37847;SDS011;23688;33.130;-117.188;2023-01-16T15:16:29;36.28;;;4.25;;
37847;SDS011;23688;33.130;-117.188;2023-01-16T15:19:19;30.42;;;4.35;;
37847;SDS011;23688;33.130;-117.188;2023-01-16T15:22:13;60.67;;;6.47;;
37847;SDS011;23688;33.130;-117.188;2023-01-16T15:25:07;61.35;;;6.38;;
37847;SDS011;23688;33.130;-117.188;2023-01-16T15:27:51;53.15;;;7.70;;
37847;SDS011;23688;33.130;-117.188;2023-01-16T15:30:26;68.72;;;6.82;;
37847;SDS011;23688;33.130;-117.188;2023-01-16T15:32:56;40.80;;;6.78;;
37847;SDS011;23688;33.130;-117.188;2023-01-16T15:35:42;48.80;;;5.68;;
37847;SDS011;23688;33.130;-117.188;2023-01-16T15:38:10;29.88;;;5.22;;
37847;SDS011;23688;33.130;-117.188;2023-01-16T15:40:37;24.55;;;3.70;;
37847;SDS011;23688;33.130;-117.188;2023-01-16T15:43:04;45.50;;;5.20;;
37847;SDS011;23688;33.130;-117.188;2023-01-16T15:46:02;48.55;;;6.55;;
37847;SDS011;23688;33.130;-117.188;2023-01-16T15:48:56;52.58;;;6.47;;
37847;SDS011;23688;33.130;-117.188;2023-01-16T15:54:10;78.35;;;7.80;;
37847;SDS011;23688;33.130;-117.188;2023-01-16T15:56:42;55.03;;;7.43;;
37847;SDS011;23688;33.130;-117.188;2023-01-16T15:59:29;62.35;;;6.65;;
37847;SDS011;23688;33.130;-117.188;2023-01-16T16:04:45;66.55;;;7.10;;
37847;SDS011;23688;33.130;-117.188;2023-01-16T16:07:13;59.38;;;6.82;;
37847;SDS011;23688;33.130;-117.188;2023-01-16T16:09:41;71.40;;;7.43;;
37847;SDS011;23688;33.130;-117.188;2023-01-16T16:12:11;71.65;;;6.97;;
37847;SDS011;23688;33.130;-117.188;2023-01-16T16:14:38;68.30;;;8.38;;
37847;SDS011;23688;33.130;-117.188;2023-01-16T16:17:23;68.00;;;7.68;;
37847;SDS011;23688;33.130;-117.188;2023-01-16T16:23:23;95.70;;;9.95;;
37847;SDS011;23688;33.130;-117.188;2023-01-16T16:28:20;105.50;;;13.82;;
37847;SDS011;23688;33.130;-117.188;2023-01-16T16:33:58;116.20;;;15.48;;
37847;SDS011;23688;33.130;-117.188;2023-01-16T16:36:40;109.38;;;15.35;;
37847;SDS011;23688;33.130;-117.188;2023-01-16T16:39:45;93.07;;;11.27;;
37847;SDS011;23688;33.130;-117.188;2023-01-16T16:47:36;99.53;;;10.57;;
37847;SDS011;23688;33.130;-117.188;2023-01-16T16:53:16;87.28;;;11.82;;
37847;SDS011;23688;33.130;-117.188;2023-01-16T16:55:52;101.05;;;12.57;;
37847;SDS011;23688;33.130;-117.188;2023-01-16T16:58:31;91.68;;;10.50;;
37847;SDS011;23688;33.130;-117.188;2023-01-16T17:00:57;107.13;;;11.32;;
37847;SDS011;23688;33.130;-117.188;2023-01-16T17:03:25;92.38;;;11.02;;
37847;SDS011;23688;33.130;-117.188;2023-01-16T17:05:56;106.25;;;11.70;;
37847;SDS011;23688;33.130;-117.188;2023-01-16T17:08:26;89.25;;;10.85;;
37847;SDS011;23688;33.130;-117.188;2023-01-16T17:10:53;102.15;;;10.95;;
37847;SDS011;23688;33.130;-117.188;2023-01-16T17:13:21;82.22;;;9.38;;
37847;SDS011;23688;33.130;-117.188;2023-01-16T17:15:50;79.60;;;10.95;;
37847;SDS011;23688;33.130;-117.188;2023-01-16T17:18:21;114.60;;;13.25;;
37847;SDS011;23688;33.130;-117.188;2023-01-16T17:20:49;99.38;;;12.50;;
37847;SDS011;23688;33.130;-117.188;2023-01-16T17:25:44;94.70;;;12.07;;
37847;SDS011;23688;33.130;-117.188;2023-01-16T17:28:11;102.80;;;12.27;;
37847;SDS011;23688;33.130;-117.188;2023-01-16T17:30:40;119.10;;;14.73;;
37847;SDS011;23688;33.130;-117.188;2023-01-16T17:33:11;122.97;;;13.73;;
37847;SDS011;23688;33.130;-117.188;2023-01-16T17:35:45;147.77;;;16.02;;
37847;SDS011;23688;33.130;-117.188;2023-01-16T17:38:24;127.82;;;14.40;;
37847;SDS011;23688;33.130;-117.188;2023-01-16T17:40:51;123.70;;;16.08;;